High Level, High Level Airport (CYOJ)

NameHigh Level Airport
CityHigh Level
CountryCanada
ICAOCYOJ
IATAYOJ
Altitude338 m
CoordinatesGoogle Map
Live Air TrafficLiveATC.net
METARCYOJ 150300Z 35008KT 3SM -SN FEW023 OVC030 M12/M13 A2931 RMK SC2SC6 SLP956
2018-12-15 03:00:00 Wind: North-Northwest (350°) 4.12 m/s - Visibility: 4828.02 m - Weather: Light Snow - Temperature: -12 °C - Dew point: -13 °C - Humidity: 92.4% - Pressure: 992.55 hPa
Statistics

The table below shows the detailed information of all flights to/from High Level, High Level Airport (CYOJ).